sensor_id;sensor_type;location;lat;lon;timestamp;P1;durP1;ratioP1;P2;durP2;ratioP2
10052;SDS011;52418;53.134;8.236;2023-03-14T00:01:09;1.10;;;1.10;;
10052;SDS011;52418;53.134;8.236;2023-03-14T00:03:34;1.20;;;1.20;;
10052;SDS011;52418;53.134;8.236;2023-03-14T00:08:59;1.10;;;1.10;;
10052;SDS011;52418;53.134;8.236;2023-03-14T00:11:24;1.17;;;1.17;;
10052;SDS011;52418;53.134;8.236;2023-03-14T00:13:50;1.13;;;1.13;;
10052;SDS011;52418;53.134;8.236;2023-03-14T00:16:16;1.10;;;1.10;;
10052;SDS011;52418;53.134;8.236;2023-03-14T00:18:42;1.10;;;1.10;;
10052;SDS011;52418;53.134;8.236;2023-03-14T00:21:08;1.10;;;1.10;;
10052;SDS011;52418;53.134;8.236;2023-03-14T00:23:34;1.20;;;1.20;;
10052;SDS011;52418;53.134;8.236;2023-03-14T00:26:04;1.20;;;1.20;;
10052;SDS011;52418;53.134;8.236;2023-03-14T00:28:29;1.07;;;1.07;;
10052;SDS011;52418;53.134;8.236;2023-03-14T00:30:55;1.10;;;1.10;;
10052;SDS011;52418;53.134;8.236;2023-03-14T00:33:20;1.20;;;1.20;;
10052;SDS011;52418;53.134;8.236;2023-03-14T00:35:55;1.10;;;1.10;;
10052;SDS011;52418;53.134;8.236;2023-03-14T00:38:21;1.00;;;1.00;;
10052;SDS011;52418;53.134;8.236;2023-03-14T00:40:47;1.07;;;1.07;;
10052;SDS011;52418;53.134;8.236;2023-03-14T00:43:12;1.03;;;1.03;;
10052;SDS011;52418;53.134;8.236;2023-03-14T00:45:37;1.10;;;1.10;;
10052;SDS011;52418;53.134;8.236;2023-03-14T00:48:02;1.10;;;1.10;;
10052;SDS011;52418;53.134;8.236;2023-03-14T00:50:27;1.00;;;1.00;;
10052;SDS011;52418;53.134;8.236;2023-03-14T00:52:53;1.20;;;1.20;;
10052;SDS011;52418;53.134;8.236;2023-03-14T00:55:18;1.03;;;1.03;;
10052;SDS011;52418;53.134;8.236;2023-03-14T00:57:43;1.10;;;1.10;;
10052;SDS011;52418;53.134;8.236;2023-03-14T01:00:08;1.10;;;1.10;;
10052;SDS011;52418;53.134;8.236;2023-03-14T01:02:36;1.10;;;1.10;;
10052;SDS011;52418;53.134;8.236;2023-03-14T01:05:01;1.07;;;1.07;;
10052;SDS011;52418;53.134;8.236;2023-03-14T01:07:26;1.10;;;1.10;;
10052;SDS011;52418;53.134;8.236;2023-03-14T01:09:52;1.10;;;1.10;;
10052;SDS011;52418;53.134;8.236;2023-03-14T01:12:17;1.10;;;1.10;;
10052;SDS011;52418;53.134;8.236;2023-03-14T01:14:42;1.10;;;1.10;;
10052;SDS011;52418;53.134;8.236;2023-03-14T01:17:08;1.03;;;1.03;;
10052;SDS011;52418;53.134;8.236;2023-03-14T01:19:33;1.03;;;1.03;;
10052;SDS011;52418;53.134;8.236;2023-03-14T01:21:58;1.10;;;1.10;;
10052;SDS011;52418;53.134;8.236;2023-03-14T01:24:23;1.10;;;1.10;;
10052;SDS011;52418;53.134;8.236;2023-03-14T01:26:48;1.03;;;1.03;;
10052;SDS011;52418;53.134;8.236;2023-03-14T01:29:14;1.03;;;1.03;;
10052;SDS011;52418;53.134;8.236;2023-03-14T01:31:39;1.10;;;1.10;;
10052;SDS011;52418;53.134;8.236;2023-03-14T01:34:04;1.10;;;1.10;;
10052;SDS011;52418;53.134;8.236;2023-03-14T01:36:29;1.20;;;1.20;;
10052;SDS011;52418;53.134;8.236;2023-03-14T01:38:54;1.10;;;1.10;;
10052;SDS011;52418;53.134;8.236;2023-03-14T01:41:21;1.10;;;1.10;;
10052;SDS011;52418;53.134;8.236;2023-03-14T01:43:48;1.00;;;1.00;;
10052;SDS011;52418;53.134;8.236;2023-03-14T01:48:56;1.10;;;1.10;;
10052;SDS011;52418;53.134;8.236;2023-03-14T01:51:29;1.07;;;1.07;;
10052;SDS011;52418;53.134;8.236;2023-03-14T01:53:59;1.10;;;1.10;;
10052;SDS011;52418;53.134;8.236;2023-03-14T01:56:26;1.10;;;1.10;;
10052;SDS011;52418;53.134;8.236;2023-03-14T01:58:51;1.20;;;1.20;;
10052;SDS011;52418;53.134;8.236;2023-03-14T02:01:18;1.10;;;1.10;;
10052;SDS011;52418;53.134;8.236;2023-03-14T02:03:46;1.00;;;1.00;;
10052;SDS011;52418;53.134;8.236;2023-03-14T02:06:12;1.10;;;1.10;;
10052;SDS011;52418;53.134;8.236;2023-03-14T02:08:39;1.10;;;1.10;;
10052;SDS011;52418;53.134;8.236;2023-03-14T02:11:04;1.00;;;1.00;;
10052;SDS011;52418;53.134;8.236;2023-03-14T02:13:32;1.10;;;1.10;;
10052;SDS011;52418;53.134;8.236;2023-03-14T02:15:57;1.10;;;1.10;;
10052;SDS011;52418;53.134;8.236;2023-03-14T02:18:22;1.00;;;1.00;;
10052;SDS011;52418;53.134;8.236;2023-03-14T02:20:52;1.00;;;1.00;;
10052;SDS011;52418;53.134;8.236;2023-03-14T02:23:22;1.10;;;1.10;;
10052;SDS011;52418;53.134;8.236;2023-03-14T02:25:57;1.10;;;1.10;;
10052;SDS011;52418;53.134;8.236;2023-03-14T02:28:22;1.10;;;1.10;;
10052;SDS011;52418;53.134;8.236;2023-03-14T02:30:48;1.10;;;1.10;;
10052;SDS011;52418;53.134;8.236;2023-03-14T02:33:15;1.20;;;1.20;;
10052;SDS011;52418;53.134;8.236;2023-03-14T02:35:45;1.20;;;1.20;;
10052;SDS011;52418;53.134;8.236;2023-03-14T02:40:49;1.20;;;1.20;;
10052;SDS011;52418;53.134;8.236;2023-03-14T02:43:14;1.10;;;1.10;;
10052;SDS011;52418;53.134;8.236;2023-03-14T02:45:43;1.10;;;1.10;;
10052;SDS011;52418;53.134;8.236;2023-03-14T02:48:16;1.00;;;1.00;;
10052;SDS011;52418;53.134;8.236;2023-03-14T02:50:42;1.00;;;1.00;;
10052;SDS011;52418;53.134;8.236;2023-03-14T02:53:08;1.00;;;1.00;;
10052;SDS011;52418;53.134;8.236;2023-03-14T02:55:33;1.00;;;1.00;;
10052;SDS011;52418;53.134;8.236;2023-03-14T02:57:58;1.10;;;1.10;;
10052;SDS011;52418;53.134;8.236;2023-03-14T03:00:29;1.23;;;1.23;;
10052;SDS011;52418;53.134;8.236;2023-03-14T03:02:55;1.00;;;1.00;;
10052;SDS011;52418;53.134;8.236;2023-03-14T03:05:20;1.10;;;1.10;;
10052;SDS011;52418;53.134;8.236;2023-03-14T03:07:46;1.10;;;1.10;;
10052;SDS011;52418;53.134;8.236;2023-03-14T03:10:11;1.10;;;1.10;;
10052;SDS011;52418;53.134;8.236;2023-03-14T03:12:36;1.00;;;1.00;;
10052;SDS011;52418;53.134;8.236;2023-03-14T03:15:01;1.00;;;1.00;;
10052;SDS011;52418;53.134;8.236;2023-03-14T03:17:27;1.10;;;1.10;;
10052;SDS011;52418;53.134;8.236;2023-03-14T03:19:52;1.00;;;1.00;;
10052;SDS011;52418;53.134;8.236;2023-03-14T03:22:17;1.00;;;1.00;;
10052;SDS011;52418;53.134;8.236;2023-03-14T03:24:42;1.00;;;1.00;;
10052;SDS011;52418;53.134;8.236;2023-03-14T03:27:09;0.93;;;0.93;;
10052;SDS011;52418;53.134;8.236;2023-03-14T03:29:34;1.00;;;1.00;;
10052;SDS011;52418;53.134;8.236;2023-03-14T03:31:59;1.10;;;1.10;;
10052;SDS011;52418;53.134;8.236;2023-03-14T03:34:24;0.90;;;0.90;;
10052;SDS011;52418;53.134;8.236;2023-03-14T03:36:50;1.00;;;1.00;;
10052;SDS011;52418;53.134;8.236;2023-03-14T03:39:15;1.10;;;1.10;;
10052;SDS011;52418;53.134;8.236;2023-03-14T03:41:40;1.00;;;1.00;;
10052;SDS011;52418;53.134;8.236;2023-03-14T03:44:05;1.03;;;1.03;;
10052;SDS011;52418;53.134;8.236;2023-03-14T03:46:31;1.00;;;1.00;;
10052;SDS011;52418;53.134;8.236;2023-03-14T03:48:57;1.00;;;1.00;;
10052;SDS011;52418;53.134;8.236;2023-03-14T03:51:22;1.00;;;1.00;;
10052;SDS011;52418;53.134;8.236;2023-03-14T03:53:47;1.00;;;1.00;;
10052;SDS011;52418;53.134;8.236;2023-03-14T03:56:12;1.10;;;1.10;;
10052;SDS011;52418;53.134;8.236;2023-03-14T03:58:38;1.00;;;1.00;;
10052;SDS011;52418;53.134;8.236;2023-03-14T04:01:04;1.00;;;1.00;;
10052;SDS011;52418;53.134;8.236;2023-03-14T04:03:29;0.90;;;0.90;;
10052;SDS011;52418;53.134;8.236;2023-03-14T04:06:01;1.00;;;1.00;;
10052;SDS011;52418;53.134;8.236;2023-03-14T04:08:27;0.97;;;0.97;;
10052;SDS011;52418;53.134;8.236;2023-03-14T04:10:59;1.00;;;1.00;;
10052;SDS011;52418;53.134;8.236;2023-03-14T04:13:24;1.00;;;1.00;;
10052;SDS011;52418;53.134;8.236;2023-03-14T04:15:51;1.03;;;1.03;;
10052;SDS011;52418;53.134;8.236;2023-03-14T04:18:16;1.00;;;1.00;;
10052;SDS011;52418;53.134;8.236;2023-03-14T04:20:42;1.00;;;1.00;;
10052;SDS011;52418;53.134;8.236;2023-03-14T04:23:07;1.00;;;1.00;;
10052;SDS011;52418;53.134;8.236;2023-03-14T04:25:32;1.00;;;1.00;;
10052;SDS011;52418;53.134;8.236;2023-03-14T04:27:57;0.90;;;0.90;;
10052;SDS011;52418;53.134;8.236;2023-03-14T04:30:22;1.07;;;1.07;;
10052;SDS011;52418;53.134;8.236;2023-03-14T04:32:48;1.00;;;1.00;;
10052;SDS011;52418;53.134;8.236;2023-03-14T04:35:13;1.00;;;1.00;;
10052;SDS011;52418;53.134;8.236;2023-03-14T04:37:38;1.13;;;1.13;;
10052;SDS011;52418;53.134;8.236;2023-03-14T04:40:03;1.03;;;1.03;;
10052;SDS011;52418;53.134;8.236;2023-03-14T04:42:31;1.00;;;1.00;;
10052;SDS011;52418;53.134;8.236;2023-03-14T04:44:56;1.10;;;1.10;;
10052;SDS011;52418;53.134;8.236;2023-03-14T04:47:21;1.10;;;1.10;;
10052;SDS011;52418;53.134;8.236;2023-03-14T04:49:46;1.00;;;1.00;;
10052;SDS011;52418;53.134;8.236;2023-03-14T04:52:11;1.00;;;1.00;;
10052;SDS011;52418;53.134;8.236;2023-03-14T04:54:37;1.00;;;1.00;;
10052;SDS011;52418;53.134;8.236;2023-03-14T04:57:02;1.00;;;1.00;;
10052;SDS011;52418;53.134;8.236;2023-03-14T04:59:27;1.00;;;1.00;;
10052;SDS011;52418;53.134;8.236;2023-03-14T05:01:52;1.10;;;1.10;;
10052;SDS011;52418;53.134;8.236;2023-03-14T05:04:17;1.00;;;1.00;;
10052;SDS011;52418;53.134;8.236;2023-03-14T05:06:43;1.00;;;1.00;;
10052;SDS011;52418;53.134;8.236;2023-03-14T05:09:08;1.17;;;1.17;;
10052;SDS011;52418;53.134;8.236;2023-03-14T05:11:38;1.00;;;1.00;;
10052;SDS011;52418;53.134;8.236;2023-03-14T05:14:08;1.10;;;1.10;;
10052;SDS011;52418;53.134;8.236;2023-03-14T05:16:34;1.10;;;1.10;;
10052;SDS011;52418;53.134;8.236;2023-03-14T05:18:59;1.10;;;1.10;;
10052;SDS011;52418;53.134;8.236;2023-03-14T05:21:26;1.00;;;1.00;;
10052;SDS011;52418;53.134;8.236;2023-03-14T05:23:51;1.20;;;1.20;;
10052;SDS011;52418;53.134;8.236;2023-03-14T05:26:16;1.13;;;1.13;;
10052;SDS011;52418;53.134;8.236;2023-03-14T05:28:42;1.10;;;1.10;;
10052;SDS011;52418;53.134;8.236;2023-03-14T05:31:08;1.10;;;1.10;;
10052;SDS011;52418;53.134;8.236;2023-03-14T05:36:27;1.10;;;1.10;;
10052;SDS011;52418;53.134;8.236;2023-03-14T05:38:52;1.10;;;1.10;;
10052;SDS011;52418;53.134;8.236;2023-03-14T05:41:18;1.00;;;1.00;;
10052;SDS011;52418;53.134;8.236;2023-03-14T05:43:43;1.00;;;1.00;;
10052;SDS011;52418;53.134;8.236;2023-03-14T05:48:38;1.00;;;1.00;;
10052;SDS011;52418;53.134;8.236;2023-03-14T05:51:04;1.00;;;1.00;;
10052;SDS011;52418;53.134;8.236;2023-03-14T05:53:29;1.00;;;1.00;;
10052;SDS011;52418;53.134;8.236;2023-03-14T05:55:55;1.10;;;1.10;;
10052;SDS011;52418;53.134;8.236;2023-03-14T05:58:21;1.00;;;1.00;;
10052;SDS011;52418;53.134;8.236;2023-03-14T06:00:46;0.90;;;0.90;;
10052;SDS011;52418;53.134;8.236;2023-03-14T06:03:11;0.90;;;0.90;;
10052;SDS011;52418;53.134;8.236;2023-03-14T06:05:36;0.90;;;0.90;;
10052;SDS011;52418;53.134;8.236;2023-03-14T06:08:02;1.00;;;1.00;;
10052;SDS011;52418;53.134;8.236;2023-03-14T06:10:27;0.90;;;0.90;;
10052;SDS011;52418;53.134;8.236;2023-03-14T06:12:52;1.00;;;1.00;;
10052;SDS011;52418;53.134;8.236;2023-03-14T06:15:17;0.90;;;0.90;;
10052;SDS011;52418;53.134;8.236;2023-03-14T06:17:42;0.90;;;0.90;;
10052;SDS011;52418;53.134;8.236;2023-03-14T06:20:08;0.90;;;0.90;;
10052;SDS011;52418;53.134;8.236;2023-03-14T06:22:33;0.90;;;0.90;;
10052;SDS011;52418;53.134;8.236;2023-03-14T06:24:59;0.97;;;0.97;;
10052;SDS011;52418;53.134;8.236;2023-03-14T06:27:24;1.00;;;1.00;;
10052;SDS011;52418;53.134;8.236;2023-03-14T06:29:49;0.93;;;0.93;;
10052;SDS011;52418;53.134;8.236;2023-03-14T06:32:14;1.00;;;1.00;;
10052;SDS011;52418;53.134;8.236;2023-03-14T06:34:39;0.90;;;0.90;;
10052;SDS011;52418;53.134;8.236;2023-03-14T06:37:05;0.97;;;0.97;;
10052;SDS011;52418;53.134;8.236;2023-03-14T06:39:30;0.90;;;0.90;;
10052;SDS011;52418;53.134;8.236;2023-03-14T06:41:56;0.90;;;0.90;;
10052;SDS011;52418;53.134;8.236;2023-03-14T06:44:21;0.90;;;0.90;;
10052;SDS011;52418;53.134;8.236;2023-03-14T06:46:47;0.80;;;0.80;;
10052;SDS011;52418;53.134;8.236;2023-03-14T06:49:12;0.90;;;0.90;;
10052;SDS011;52418;53.134;8.236;2023-03-14T06:51:37;1.00;;;1.00;;
10052;SDS011;52418;53.134;8.236;2023-03-14T06:54:02;1.00;;;1.00;;
10052;SDS011;52418;53.134;8.236;2023-03-14T06:56:27;0.90;;;0.90;;
10052;SDS011;52418;53.134;8.236;2023-03-14T06:58:53;1.00;;;1.00;;
10052;SDS011;52418;53.134;8.236;2023-03-14T07:01:23;0.90;;;0.90;;
10052;SDS011;52418;53.134;8.236;2023-03-14T07:03:48;1.00;;;1.00;;
10052;SDS011;52418;53.134;8.236;2023-03-14T07:06:13;1.07;;;1.07;;
10052;SDS011;52418;53.134;8.236;2023-03-14T07:08:38;1.00;;;1.00;;
10052;SDS011;52418;53.134;8.236;2023-03-14T07:11:04;1.00;;;1.00;;
10052;SDS011;52418;53.134;8.236;2023-03-14T07:13:29;1.00;;;1.00;;
10052;SDS011;52418;53.134;8.236;2023-03-14T07:15:54;1.00;;;1.00;;
10052;SDS011;52418;53.134;8.236;2023-03-14T07:18:20;1.00;;;1.00;;
10052;SDS011;52418;53.134;8.236;2023-03-14T07:20:45;1.00;;;1.00;;
10052;SDS011;52418;53.134;8.236;2023-03-14T07:23:10;1.00;;;1.00;;
10052;SDS011;52418;53.134;8.236;2023-03-14T07:25:36;0.90;;;0.90;;
10052;SDS011;52418;53.134;8.236;2023-03-14T07:28:01;0.90;;;0.90;;
10052;SDS011;52418;53.134;8.236;2023-03-14T07:30:26;0.90;;;0.90;;
10052;SDS011;52418;53.134;8.236;2023-03-14T07:32:51;1.00;;;1.00;;
10052;SDS011;52418;53.134;8.236;2023-03-14T07:35:16;0.80;;;0.80;;
10052;SDS011;52418;53.134;8.236;2023-03-14T07:37:42;0.87;;;0.87;;
10052;SDS011;52418;53.134;8.236;2023-03-14T07:40:07;0.90;;;0.90;;
10052;SDS011;52418;53.134;8.236;2023-03-14T07:42:32;0.90;;;0.90;;
10052;SDS011;52418;53.134;8.236;2023-03-14T07:44:58;0.93;;;0.93;;
10052;SDS011;52418;53.134;8.236;2023-03-14T07:47:23;1.00;;;1.00;;
10052;SDS011;52418;53.134;8.236;2023-03-14T07:49:48;0.90;;;0.90;;
10052;SDS011;52418;53.134;8.236;2023-03-14T07:52:13;1.00;;;1.00;;
10052;SDS011;52418;53.134;8.236;2023-03-14T07:54:39;1.00;;;1.00;;
10052;SDS011;52418;53.134;8.236;2023-03-14T07:57:04;1.00;;;1.00;;
10052;SDS011;52418;53.134;8.236;2023-03-14T07:59:29;1.00;;;1.00;;
10052;SDS011;52418;53.134;8.236;2023-03-14T08:01:55;0.90;;;0.90;;
10052;SDS011;52418;53.134;8.236;2023-03-14T08:04:20;0.90;;;0.90;;
10052;SDS011;52418;53.134;8.236;2023-03-14T08:06:45;0.97;;;0.97;;
10052;SDS011;52418;53.134;8.236;2023-03-14T08:09:10;1.00;;;1.00;;
10052;SDS011;52418;53.134;8.236;2023-03-14T08:11:35;0.93;;;0.93;;
10052;SDS011;52418;53.134;8.236;2023-03-14T08:14:01;1.00;;;1.00;;
10052;SDS011;52418;53.134;8.236;2023-03-14T08:16:26;1.10;;;1.10;;
10052;SDS011;52418;53.134;8.236;2023-03-14T08:18:53;1.10;;;1.10;;
10052;SDS011;52418;53.134;8.236;2023-03-14T08:21:18;1.17;;;1.17;;
10052;SDS011;52418;53.134;8.236;2023-03-14T08:23:44;1.10;;;1.10;;
10052;SDS011;52418;53.134;8.236;2023-03-14T08:26:09;1.00;;;1.00;;
10052;SDS011;52418;53.134;8.236;2023-03-14T08:28:34;1.10;;;1.10;;
10052;SDS011;52418;53.134;8.236;2023-03-14T08:31:00;1.00;;;1.00;;
10052;SDS011;52418;53.134;8.236;2023-03-14T08:33:26;1.07;;;1.07;;
10052;SDS011;52418;53.134;8.236;2023-03-14T08:35:52;1.00;;;1.00;;
10052;SDS011;52418;53.134;8.236;2023-03-14T08:38:17;1.10;;;1.10;;
10052;SDS011;52418;53.134;8.236;2023-03-14T08:40:42;1.37;;;1.37;;
10052;SDS011;52418;53.134;8.236;2023-03-14T08:43:08;1.60;;;1.50;;
10052;SDS011;52418;53.134;8.236;2023-03-14T08:45:33;1.57;;;1.47;;
10052;SDS011;52418;53.134;8.236;2023-03-14T08:47:58;1.30;;;1.30;;
10052;SDS011;52418;53.134;8.236;2023-03-14T08:50:23;1.60;;;1.50;;
10052;SDS011;52418;53.134;8.236;2023-03-14T08:52:49;1.60;;;1.50;;
10052;SDS011;52418;53.134;8.236;2023-03-14T08:55:14;1.50;;;1.40;;
10052;SDS011;52418;53.134;8.236;2023-03-14T08:57:39;1.67;;;1.57;;
10052;SDS011;52418;53.134;8.236;2023-03-14T09:00:05;1.70;;;1.60;;
10052;SDS011;52418;53.134;8.236;2023-03-14T09:02:35;1.70;;;1.60;;
10052;SDS011;52418;53.134;8.236;2023-03-14T09:05:00;2.00;;;1.90;;
10052;SDS011;52418;53.134;8.236;2023-03-14T09:07:26;2.00;;;1.90;;
10052;SDS011;52418;53.134;8.236;2023-03-14T09:09:52;2.00;;;1.90;;
10052;SDS011;52418;53.134;8.236;2023-03-14T09:12:17;2.53;;;2.43;;
10052;SDS011;52418;53.134;8.236;2023-03-14T09:14:43;2.50;;;2.40;;
10052;SDS011;52418;53.134;8.236;2023-03-14T09:17:08;2.50;;;2.40;;
10052;SDS011;52418;53.134;8.236;2023-03-14T09:19:34;2.20;;;2.10;;
10052;SDS011;52418;53.134;8.236;2023-03-14T09:21:59;2.30;;;2.20;;
10052;SDS011;52418;53.134;8.236;2023-03-14T09:24:24;2.20;;;2.10;;
10052;SDS011;52418;53.134;8.236;2023-03-14T09:26:49;2.17;;;2.07;;
10052;SDS011;52418;53.134;8.236;2023-03-14T09:29:14;2.20;;;2.10;;
10052;SDS011;52418;53.134;8.236;2023-03-14T09:31:39;2.20;;;2.10;;
10052;SDS011;52418;53.134;8.236;2023-03-14T09:34:05;2.30;;;2.20;;
10052;SDS011;52418;53.134;8.236;2023-03-14T09:36:30;2.30;;;2.20;;
10052;SDS011;52418;53.134;8.236;2023-03-14T09:38:55;2.40;;;2.30;;
10052;SDS011;52418;53.134;8.236;2023-03-14T09:41:21;2.17;;;2.07;;
10052;SDS011;52418;53.134;8.236;2023-03-14T09:43:49;2.40;;;2.30;;
10052;SDS011;52418;53.134;8.236;2023-03-14T09:46:18;2.27;;;2.17;;
10052;SDS011;52418;53.134;8.236;2023-03-14T09:48:43;2.40;;;2.30;;
10052;SDS011;52418;53.134;8.236;2023-03-14T09:51:16;2.40;;;2.30;;
10052;SDS011;52418;53.134;8.236;2023-03-14T09:53:45;2.40;;;2.30;;
10052;SDS011;52418;53.134;8.236;2023-03-14T09:56:25;2.20;;;2.10;;
10052;SDS011;52418;53.134;8.236;2023-03-14T09:58:52;2.30;;;2.20;;
10052;SDS011;52418;53.134;8.236;2023-03-14T10:01:20;2.37;;;2.27;;
10052;SDS011;52418;53.134;8.236;2023-03-14T10:03:47;2.30;;;2.20;;
10052;SDS011;52418;53.134;8.236;2023-03-14T10:06:12;2.50;;;2.40;;
10052;SDS011;52418;53.134;8.236;2023-03-14T10:08:42;2.30;;;2.20;;
10052;SDS011;52418;53.134;8.236;2023-03-14T10:11:12;2.40;;;2.30;;
10052;SDS011;52418;53.134;8.236;2023-03-14T10:13:46;2.20;;;2.10;;
10052;SDS011;52418;53.134;8.236;2023-03-14T10:16:11;2.20;;;2.10;;
10052;SDS011;52418;53.134;8.236;2023-03-14T10:18:38;2.20;;;2.10;;
10052;SDS011;52418;53.134;8.236;2023-03-14T10:21:22;2.20;;;2.10;;
10052;SDS011;52418;53.134;8.236;2023-03-14T10:23:50;2.37;;;2.27;;
10052;SDS011;52418;53.134;8.236;2023-03-14T10:26:16;2.27;;;2.17;;
10052;SDS011;52418;53.134;8.236;2023-03-14T10:28:46;2.13;;;2.03;;
10052;SDS011;52418;53.134;8.236;2023-03-14T10:31:12;2.30;;;2.20;;
10052;SDS011;52418;53.134;8.236;2023-03-14T10:33:37;2.20;;;2.10;;
10052;SDS011;52418;53.134;8.236;2023-03-14T10:36:03;1.90;;;1.80;;
10052;SDS011;52418;53.134;8.236;2023-03-14T10:38:31;1.70;;;1.60;;
10052;SDS011;52418;53.134;8.236;2023-03-14T10:40:56;1.80;;;1.70;;
10052;SDS011;52418;53.134;8.236;2023-03-14T10:43:24;1.77;;;1.67;;
10052;SDS011;52418;53.134;8.236;2023-03-14T10:45:56;1.70;;;1.60;;
10052;SDS011;52418;53.134;8.236;2023-03-14T10:50:55;2.00;;;1.90;;
10052;SDS011;52418;53.134;8.236;2023-03-14T10:53:20;1.70;;;1.60;;
10052;SDS011;52418;53.134;8.236;2023-03-14T10:55:46;1.60;;;1.50;;
10052;SDS011;52418;53.134;8.236;2023-03-14T10:58:21;1.70;;;1.60;;
10052;SDS011;52418;53.134;8.236;2023-03-14T11:00:48;1.80;;;1.70;;
10052;SDS011;52418;53.134;8.236;2023-03-14T11:03:15;1.63;;;1.53;;
10052;SDS011;52418;53.134;8.236;2023-03-14T11:08:20;1.57;;;1.47;;
10052;SDS011;52418;53.134;8.236;2023-03-14T11:10:50;1.70;;;1.60;;
10052;SDS011;52418;53.134;8.236;2023-03-14T11:15:58;1.70;;;1.60;;
10052;SDS011;52418;53.134;8.236;2023-03-14T11:20:53;1.57;;;1.47;;
10052;SDS011;52418;53.134;8.236;2023-03-14T11:23:22;1.30;;;1.30;;
10052;SDS011;52418;53.134;8.236;2023-03-14T11:34:01;1.33;;;1.33;;
10052;SDS011;52418;53.134;8.236;2023-03-14T11:36:31;1.20;;;1.20;;
10052;SDS011;52418;53.134;8.236;2023-03-14T11:38:59;1.23;;;1.23;;
10052;SDS011;52418;53.134;8.236;2023-03-14T11:41:36;1.13;;;1.13;;
10052;SDS011;52418;53.134;8.236;2023-03-14T11:44:04;1.20;;;1.20;;
10052;SDS011;52418;53.134;8.236;2023-03-14T11:46:39;1.20;;;1.20;;
10052;SDS011;52418;53.134;8.236;2023-03-14T11:51:50;1.20;;;1.20;;
10052;SDS011;52418;53.134;8.236;2023-03-14T11:57:01;1.20;;;1.20;;
10052;SDS011;52418;53.134;8.236;2023-03-14T11:59:29;1.20;;;1.20;;
10052;SDS011;52418;53.134;8.236;2023-03-14T12:01:57;1.30;;;1.30;;
10052;SDS011;52418;53.134;8.236;2023-03-14T12:04:31;1.20;;;1.20;;
10052;SDS011;52418;53.134;8.236;2023-03-14T12:06:57;1.30;;;1.30;;
10052;SDS011;52418;53.134;8.236;2023-03-14T12:09:25;1.20;;;1.20;;
10052;SDS011;52418;53.134;8.236;2023-03-14T12:11:58;1.30;;;1.30;;
10052;SDS011;52418;53.134;8.236;2023-03-14T12:14:25;1.20;;;1.20;;
10052;SDS011;52418;53.134;8.236;2023-03-14T12:17:37;1.30;;;1.30;;
10052;SDS011;52418;53.134;8.236;2023-03-14T12:19:38;1.30;;;1.30;;
10052;SDS011;52418;53.134;8.236;2023-03-14T12:22:17;1.50;;;1.40;;
10052;SDS011;52418;53.134;8.236;2023-03-14T12:24:51;1.30;;;1.30;;
10052;SDS011;52418;53.134;8.236;2023-03-14T12:30:02;1.20;;;1.20;;
10052;SDS011;52418;53.134;8.236;2023-03-14T12:32:40;1.07;;;1.07;;
10052;SDS011;52418;53.134;8.236;2023-03-14T12:37:49;1.20;;;1.20;;
10052;SDS011;52418;53.134;8.236;2023-03-14T12:40:29;1.20;;;1.20;;
10052;SDS011;52418;53.134;8.236;2023-03-14T12:42:59;1.10;;;1.10;;
10052;SDS011;52418;53.134;8.236;2023-03-14T12:48:01;1.10;;;1.10;;
10052;SDS011;52418;53.134;8.236;2023-03-14T12:50:35;1.20;;;1.20;;
10052;SDS011;52418;53.134;8.236;2023-03-14T12:53:07;1.20;;;1.20;;
10052;SDS011;52418;53.134;8.236;2023-03-14T13:00:54;1.07;;;1.07;;
10052;SDS011;52418;53.134;8.236;2023-03-14T13:03:20;1.00;;;1.00;;
10052;SDS011;52418;53.134;8.236;2023-03-14T13:05:57;0.90;;;0.90;;
10052;SDS011;52418;53.134;8.236;2023-03-14T13:11:10;1.20;;;1.20;;
10052;SDS011;52418;53.134;8.236;2023-03-14T13:13:37;1.10;;;1.10;;
10052;SDS011;52418;53.134;8.236;2023-03-14T13:16:14;1.10;;;1.10;;
10052;SDS011;52418;53.134;8.236;2023-03-14T13:18:40;1.10;;;1.10;;
10052;SDS011;52418;53.134;8.236;2023-03-14T13:21:14;1.10;;;1.10;;
10052;SDS011;52418;53.134;8.236;2023-03-14T13:23:40;1.10;;;1.10;;
10052;SDS011;52418;53.134;8.236;2023-03-14T13:26:09;1.10;;;1.10;;
10052;SDS011;52418;53.134;8.236;2023-03-14T13:28:36;1.00;;;1.00;;
10052;SDS011;52418;53.134;8.236;2023-03-14T13:31:04;1.03;;;1.03;;
10052;SDS011;52418;53.134;8.236;2023-03-14T13:33:31;1.00;;;1.00;;
10052;SDS011;52418;53.134;8.236;2023-03-14T13:35:58;1.10;;;1.10;;
10052;SDS011;52418;53.134;8.236;2023-03-14T13:38:26;1.00;;;1.00;;
10052;SDS011;52418;53.134;8.236;2023-03-14T13:40:51;0.97;;;0.97;;
10052;SDS011;52418;53.134;8.236;2023-03-14T13:43:33;1.10;;;1.10;;
10052;SDS011;52418;53.134;8.236;2023-03-14T13:46:04;1.10;;;1.10;;
10052;SDS011;52418;53.134;8.236;2023-03-14T13:48:32;1.10;;;1.10;;
10052;SDS011;52418;53.134;8.236;2023-03-14T13:51:02;1.10;;;1.10;;
10052;SDS011;52418;53.134;8.236;2023-03-14T13:53:42;1.10;;;1.10;;
10052;SDS011;52418;53.134;8.236;2023-03-14T13:56:09;1.10;;;1.10;;
10052;SDS011;52418;53.134;8.236;2023-03-14T13:58:35;1.00;;;1.00;;
10052;SDS011;52418;53.134;8.236;2023-03-14T14:01:02;1.10;;;1.10;;
10052;SDS011;52418;53.134;8.236;2023-03-14T14:03:36;1.10;;;1.10;;
10052;SDS011;52418;53.134;8.236;2023-03-14T14:06:10;1.17;;;1.17;;
10052;SDS011;52418;53.134;8.236;2023-03-14T14:08:42;1.20;;;1.20;;
10052;SDS011;52418;53.134;8.236;2023-03-14T14:11:08;1.10;;;1.10;;
10052;SDS011;52418;53.134;8.236;2023-03-14T14:13:42;1.20;;;1.20;;
10052;SDS011;52418;53.134;8.236;2023-03-14T14:16:16;1.10;;;1.10;;
10052;SDS011;52418;53.134;8.236;2023-03-14T14:18:48;1.00;;;1.00;;
10052;SDS011;52418;53.134;8.236;2023-03-14T14:21:21;1.10;;;1.10;;
10052;SDS011;52418;53.134;8.236;2023-03-14T14:23:46;1.10;;;1.10;;
10052;SDS011;52418;53.134;8.236;2023-03-14T14:26:14;1.00;;;1.00;;
10052;SDS011;52418;53.134;8.236;2023-03-14T14:28:41;1.00;;;1.00;;
10052;SDS011;52418;53.134;8.236;2023-03-14T14:31:17;1.20;;;1.20;;
10052;SDS011;52418;53.134;8.236;2023-03-14T14:33:53;1.10;;;1.10;;
10052;SDS011;52418;53.134;8.236;2023-03-14T14:36:23;1.20;;;1.20;;
10052;SDS011;52418;53.134;8.236;2023-03-14T14:38:50;1.20;;;1.20;;
10052;SDS011;52418;53.134;8.236;2023-03-14T14:41:15;1.20;;;1.20;;
10052;SDS011;52418;53.134;8.236;2023-03-14T14:43:40;1.20;;;1.20;;
10052;SDS011;52418;53.134;8.236;2023-03-14T14:46:06;1.10;;;1.10;;
10052;SDS011;52418;53.134;8.236;2023-03-14T14:48:35;1.10;;;1.10;;
10052;SDS011;52418;53.134;8.236;2023-03-14T14:54:08;1.10;;;1.10;;
10052;SDS011;52418;53.134;8.236;2023-03-14T14:56:51;1.20;;;1.20;;
10052;SDS011;52418;53.134;8.236;2023-03-14T14:59:18;1.00;;;1.00;;
10052;SDS011;52418;53.134;8.236;2023-03-14T15:01:45;1.07;;;1.07;;
10052;SDS011;52418;53.134;8.236;2023-03-14T15:04:13;1.10;;;1.10;;
10052;SDS011;52418;53.134;8.236;2023-03-14T15:06:39;1.00;;;1.00;;
10052;SDS011;52418;53.134;8.236;2023-03-14T15:09:04;1.10;;;1.10;;
10052;SDS011;52418;53.134;8.236;2023-03-14T15:11:29;1.13;;;1.13;;
10052;SDS011;52418;53.134;8.236;2023-03-14T15:13:55;1.10;;;1.10;;
10052;SDS011;52418;53.134;8.236;2023-03-14T15:18:54;1.10;;;1.10;;
10052;SDS011;52418;53.134;8.236;2023-03-14T15:21:23;1.10;;;1.10;;
10052;SDS011;52418;53.134;8.236;2023-03-14T15:23:48;1.20;;;1.20;;
10052;SDS011;52418;53.134;8.236;2023-03-14T15:26:15;1.10;;;1.10;;
10052;SDS011;52418;53.134;8.236;2023-03-14T15:28:40;1.20;;;1.20;;
10052;SDS011;52418;53.134;8.236;2023-03-14T15:31:08;1.10;;;1.10;;
10052;SDS011;52418;53.134;8.236;2023-03-14T15:33:34;1.13;;;1.13;;
10052;SDS011;52418;53.134;8.236;2023-03-14T15:35:59;1.10;;;1.10;;
10052;SDS011;52418;53.134;8.236;2023-03-14T15:41:20;1.10;;;1.10;;
10052;SDS011;52418;53.134;8.236;2023-03-14T15:43:45;1.00;;;1.00;;
10052;SDS011;52418;53.134;8.236;2023-03-14T15:46:11;1.00;;;1.00;;
10052;SDS011;52418;53.134;8.236;2023-03-14T15:48:36;1.00;;;1.00;;